Time;durP1;ratioP1;P1;durP2;ratioP2;P2;SDS_P1;SDS_P2;PMS_P1;PMS_P2;Temp;Humidity;BMP_temperature;BMP_pressure;BME280_temperature;BME280_humidity;BME280_pressure;Samples;Min_cycle;Max_cycle;Signal;HPM_P1;HPM_P2
2022/03/17 00:00:59;;;;;;;36.92;27.55;;;13.20;99.90;;;13.41;84.75;101663.25;5116371;28;20147;-58
2022/03/17 00:03:27;;;;;;;38.03;26.55;;;13.20;99.90;;;13.50;84.71;101674.75;5116195;28;20059;-58
2022/03/17 00:05:56;;;;;;;36.00;26.60;;;13.30;99.90;;;13.53;84.78;101672.06;5116210;28;20052;-59
2022/03/17 00:08:26;;;;;;;39.78;28.20;;;13.30;99.90;;;13.50;84.97;101690.69;5115845;28;20138;-58
2022/03/17 00:10:54;;;;;;;41.67;29.38;;;13.30;99.90;;;13.56;84.99;101668.50;5097389;28;20078;-58
2022/03/17 00:13:23;;;;;;;45.22;30.35;;;13.30;99.90;;;13.63;84.76;101703.94;5115648;28;20134;-58
2022/03/17 00:15:51;;;;;;;38.50;29.40;;;13.30;99.90;;;13.65;84.82;101678.22;5115685;28;20366;-58
2022/03/17 00:18:19;;;;;;;43.88;30.60;;;13.40;99.90;;;13.65;85.07;101673.78;5097395;28;20679;-59
2022/03/17 00:20:48;;;;;;;39.20;28.80;;;13.40;99.90;;;13.69;85.02;101693.25;5115333;28;20051;-58
2022/03/17 00:23:16;;;;;;;40.45;30.85;;;13.40;99.90;;;13.71;85.17;101680.84;5115627;28;20127;-58
2022/03/17 00:25:46;;;;;;;42.53;30.35;;;13.50;99.90;;;13.62;85.40;101680.88;5115550;28;20070;-58
2022/03/17 00:28:14;;;;;;;41.72;30.35;;;13.40;99.90;;;13.53;85.58;101666.75;5115242;28;20089;-58
2022/03/17 00:30:43;;;;;;;44.05;31.67;;;13.40;99.90;;;13.59;86.11;101677.34;5115792;28;20068;-58
2022/03/17 00:33:11;;;;;;;44.83;32.13;;;13.30;99.90;;;13.65;86.41;101686.19;5097144;28;20043;-58
2022/03/17 00:35:42;;;;;;;43.78;32.00;;;13.30;99.90;;;13.67;86.47;101690.59;5115148;28;20038;-58
2022/03/17 00:38:13;;;;;;;;;;;13.30;99.90;;;13.58;87.14;101656.09;5115588;28;20063;-58
2022/03/17 00:40:44;;;;;;;49.58;33.08;;;13.40;99.90;;;13.71;87.32;101686.16;5115775;28;19931;-58
2022/03/17 00:43:16;;;;;;;49.92;35.95;;;13.40;99.90;;;13.62;88.35;101680.88;5115369;28;20047;-58
2022/03/17 00:45:47;;;;;;;48.47;36.35;;;13.30;99.90;;;13.70;88.69;101687.06;5115420;28;20051;-58
2022/03/17 00:48:16;;;;;;;55.40;36.08;;;13.30;99.90;;;13.58;89.01;101661.41;5097525;28;20058;-58
2022/03/17 00:50:45;;;;;;;52.95;37.92;;;13.40;99.90;;;13.63;89.67;101693.31;5115290;28;20039;-58
2022/03/17 00:53:13;;;;;;;54.45;38.38;;;13.30;99.90;;;13.59;89.90;101695.97;5114956;28;20100;-58
2022/03/17 00:55:41;;;;;;;51.10;38.00;;;13.30;99.90;;;13.65;90.17;101686.19;5115120;28;20046;-58
2022/03/17 00:58:10;;;;;;;57.13;38.47;;;13.30;99.90;;;13.57;91.13;101686.22;5114852;28;20084;-58
2022/03/17 01:00:40;;;;;;;54.33;40.00;;;13.20;99.90;;;13.48;91.72;101687.16;5115427;28;20526;-59
2022/03/17 01:03:08;;;;;;;62.13;40.03;;;13.20;99.90;;;13.43;92.37;101691.56;5115512;28;20043;-59
2022/03/17 01:05:39;;;;;;;55.92;39.58;;;13.10;99.90;;;13.58;92.57;101707.50;5114712;28;20513;-58
2022/03/17 01:08:07;;;;;;;58.97;41.60;;;13.20;99.90;;;13.43;92.77;101706.66;5115168;28;20039;-57
2022/03/17 01:10:38;;;;;;;58.53;40.10;;;13.10;99.90;;;13.46;93.27;101706.63;5114934;28;20067;-59
2022/03/17 01:13:07;;;;;;;54.17;40.25;;;13.10;99.90;;;13.41;93.73;101706.63;5114776;28;20150;-58
2022/03/17 01:15:35;;;;;;;52.80;39.35;;;13.10;99.90;;;13.19;94.21;101696.97;5096493;28;20120;-58
2022/03/17 01:18:05;;;;;;;58.83;39.47;;;12.90;99.90;;;13.24;94.52;101697.81;5115026;28;20071;-58
2022/03/17 01:20:34;;;;;;;55.07;39.60;;;12.90;99.90;;;13.20;94.95;101706.69;5115163;28;20348;-58
2022/03/17 01:23:04;;;;;;;56.97;41.63;;;12.80;99.90;;;13.06;95.18;101704.94;5114990;28;20680;-58
2022/03/17 01:25:33;;;;;;;57.88;40.70;;;12.70;99.90;;;13.06;95.84;101716.47;5114469;28;20047;-58
2022/03/17 01:28:01;;;;;;;58.60;41.50;;;12.70;99.90;;;13.01;96.25;101723.50;5114195;28;20078;-58
2022/03/17 01:30:30;;;;;;;52.85;37.38;;;12.60;99.90;;;12.86;96.88;101727.94;5114242;28;20051;-57
2022/03/17 01:32:58;;;;;;;33.97;24.60;;;12.60;99.90;;;12.67;96.48;101727.06;5114164;28;20043;-58
2022/03/17 01:35:28;;;;;;;29.90;23.98;;;12.40;99.90;;;12.57;96.93;101734.13;5114375;28;20071;-57
2022/03/17 01:37:56;;;;;;;33.87;28.17;;;12.30;99.90;;;12.46;97.31;101745.59;5114354;28;20142;-57
2022/03/17 01:40:25;;;;;;;44.00;29.25;;;12.20;99.90;;;12.39;97.04;101747.34;5114227;28;20342;-58
2022/03/17 01:42:53;;;;;;;39.67;28.50;;;12.20;99.90;;;12.36;96.69;101759.72;5113957;28;20040;-58
2022/03/17 01:45:22;;;;;;;40.13;28.83;;;12.10;99.90;;;12.45;96.67;101778.31;5113895;28;20506;-58
2022/03/17 01:47:50;;;;;;;34.15;25.95;;;12.10;99.90;;;12.39;96.54;101778.28;5115260;28;20046;-66
2022/03/17 01:50:19;;;;;;;31.70;24.50;;;12.10;99.90;;;11.99;97.29;101782.59;5115329;28;20036;-66
2022/03/17 01:52:49;;;;;;;37.53;27.05;;;11.80;99.90;;;11.68;98.01;101786.84;5115326;28;20088;-66
2022/03/17 01:55:18;;;;;;;26.67;18.80;;;11.60;99.90;;;11.04;98.72;101804.88;5115589;28;20040;-66
2022/03/17 01:57:47;;;;;;;26.08;16.17;;;11.00;99.90;;;10.62;98.81;101774.50;5115381;28;20134;-66
2022/03/17 02:00:22;;;;;;;30.65;17.15;;;10.70;99.90;;;10.52;99.71;101804.38;5115180;28;20086;-67
2022/03/17 02:02:53;;;;;;;25.17;14.90;;;10.40;99.90;;;10.38;99.65;101815.66;5115190;28;20048;-66
2022/03/17 02:05:22;;;;;;;28.42;16.48;;;10.20;99.90;;;10.36;100.00;101812.09;5093667;28;20551;-65
2022/03/17 02:07:52;;;;;;;24.73;16.15;;;10.20;99.90;;;10.19;100.00;101805.72;5093944;28;20039;-66
2022/03/17 02:10:23;;;;;;;30.05;16.13;;;10.10;99.90;;;10.21;100.00;101817.22;5094887;28;20052;-66
2022/03/17 02:15:43;;;;;;;27.85;14.98;;;9.90;99.90;;;9.96;100.00;101822.19;5073435;28;20455;-66
2022/03/17 02:18:16;;;;;;;31.95;16.75;;;9.80;99.90;;;9.87;100.00;101824.69;5094678;28;20127;-66
2022/03/17 02:20:45;;;;;;;31.38;16.35;;;9.70;99.90;;;9.90;100.00;101830.03;5094666;28;20040;-66
2022/03/17 02:26:04;;;;;;;27.40;16.48;;;9.70;99.90;;;9.98;100.00;101840.69;5094638;28;20098;-66
2022/03/17 02:28:34;;;;;;;29.67;17.00;;;9.70;99.90;;;9.88;100.00;101855.53;5094154;28;20485;-66
2022/03/17 02:31:03;;;;;;;30.10;17.23;;;9.70;99.90;;;9.83;100.00;101853.69;5094608;28;20036;-66
2022/03/17 02:33:31;;;;;;;32.05;17.42;;;9.70;99.90;;;9.94;100.00;101858.28;5094351;28;20644;-65
2022/03/17 02:36:00;;;;;;;30.52;17.80;;;9.70;99.90;;;9.99;100.00;101863.59;5094017;28;20417;-65
2022/03/17 02:38:30;;;;;;;35.70;19.50;;;9.80;99.90;;;10.07;100.00;101872.53;5094074;28;20036;-66
2022/03/17 02:40:58;;;;;;;29.83;17.60;;;9.80;99.90;;;10.11;100.00;101878.75;5094598;28;20447;-66
2022/03/17 02:43:27;;;;;;;33.45;18.38;;;9.90;99.90;;;9.91;100.00;101866.13;5093960;28;20040;-66
2022/03/17 02:45:56;;;;;;;31.63;17.60;;;9.70;99.90;;;9.88;100.00;101881.97;5094169;28;20051;-66
2022/03/17 02:48:24;;;;;;;35.55;19.38;;;9.70;99.90;;;9.85;100.00;101887.19;5094330;28;20039;-66
2022/03/17 02:50:53;;;;;;;37.35;20.25;;;9.70;99.90;;;9.88;100.00;101886.34;5094073;28;20486;-66
2022/03/17 02:53:21;;;;;;;36.53;20.52;;;9.70;99.90;;;9.95;100.00;101906.69;5093790;28;20505;-66
2022/03/17 02:55:51;;;;;;;41.10;20.08;;;9.70;99.90;;;9.70;100.00;101913.38;5093724;28;20048;-66
2022/03/17 02:58:19;;;;;;;35.97;19.00;;;9.60;99.90;;;9.75;100.00;101916.09;5094066;28;20042;-66
2022/03/17 03:00:47;;;;;;;36.05;17.98;;;9.50;99.90;;;9.67;100.00;101918.63;5092572;28;20051;-65
2022/03/17 03:03:17;;;;;;;39.65;16.67;;;9.50;99.90;;;9.71;100.00;101931.03;5093811;28;20420;-65
2022/03/17 03:05:46;;;;;;;41.28;14.18;;;9.50;99.90;;;9.54;100.00;101927.19;5109969;28;20138;-65
2022/03/17 03:08:15;;;;;;;49.83;13.23;;;9.40;99.90;;;9.33;100.00;101932.09;5113789;28;20460;-65
2022/03/17 03:10:45;;;;;;;44.97;10.57;;;9.20;99.90;;;9.23;100.00;101940.75;5114092;28;20119;-66
2022/03/17 03:13:15;;;;;;;42.70;9.80;;;9.10;99.90;;;9.24;100.00;101952.19;5113791;28;20437;-66
2022/03/17 03:15:43;;;;;;;43.03;8.82;;;9.10;99.90;;;9.03;100.00;101939.47;5113735;28;20044;-65
2022/03/17 03:18:12;;;;;;;33.08;8.68;;;9.10;99.90;;;9.22;100.00;101975.91;5113091;28;20388;-65
2022/03/17 03:20:40;;;;;;;31.20;8.38;;;9.00;99.90;;;9.33;99.78;101984.91;5113724;28;20027;-65
2022/03/17 03:23:08;;;;;;;38.22;8.10;;;9.10;99.90;;;9.36;99.32;101987.63;5113607;28;20429;-66
2022/03/17 03:25:37;;;;;;;36.58;8.70;;;9.20;99.90;;;9.25;99.02;101990.94;5113612;28;20561;-65
2022/03/17 03:28:06;;;;;;;36.30;7.80;;;9.20;99.90;;;9.33;97.81;102006.03;5113520;28;20071;-66
2022/03/17 03:30:37;;;;;;;33.20;7.85;;;9.20;99.90;;;9.34;97.21;102010.47;5095600;28;20382;-66
2022/03/17 03:33:06;;;;;;;34.25;7.72;;;9.20;99.90;;;9.27;96.86;102020.88;5113626;28;20431;-65
2022/03/17 03:38:21;;;;;;;32.65;6.70;;;9.10;99.90;;;9.21;95.47;102033.97;5113544;28;20466;-65
2022/03/17 03:40:49;;;;;;;23.50;6.82;;;9.00;99.90;;;9.21;95.33;102031.31;5113519;28;20471;-65
2022/03/17 03:43:17;;;;;;;27.67;6.97;;;9.10;99.90;;;9.19;94.97;102031.31;5113734;28;20088;-66
2022/03/17 03:45:50;;;;;;;24.77;6.50;;;9.10;99.90;;;9.35;94.65;102051.84;5113611;28;20036;-66
2022/03/17 03:48:18;;;;;;;22.65;5.82;;;9.10;99.90;;;9.45;94.57;102058.19;5113672;28;20451;-66
2022/03/17 03:50:47;;;;;;;26.80;6.90;;;9.20;99.90;;;9.30;94.19;102053.50;5113647;28;20039;-65
2022/03/17 03:53:15;;;;;;;28.27;6.38;;;9.20;99.90;;;9.38;94.36;102074.78;5113413;28;20043;-66
2022/03/17 03:55:43;;;;;;;28.48;6.60;;;9.10;99.90;;;9.34;94.70;102044.78;5113311;28;20120;-65
2022/03/17 03:58:12;;;;;;;27.33;6.32;;;9.10;99.90;;;9.20;94.36;102075.31;5113494;28;20048;-65
2022/03/17 04:00:41;;;;;;;22.08;5.95;;;9.10;99.90;;;9.18;93.69;102081.41;5113573;28;20134;-66
2022/03/17 04:03:11;;;;;;;20.80;5.68;;;9.00;99.90;;;9.18;93.25;102084.94;5113262;28;20400;-66
2022/03/17 04:05:40;;;;;;;22.67;5.75;;;9.00;99.90;;;9.26;93.40;102091.28;5095048;28;20057;-65
2022/03/17 04:08:09;;;;;;;21.48;6.00;;;9.10;99.90;;;9.42;92.92;102101.28;5113108;28;20548;-65
2022/03/17 04:10:37;;;;;;;21.92;6.00;;;9.20;99.90;;;9.28;92.71;102108.03;5113498;28;20035;-66
2022/03/17 04:13:05;;;;;;;21.45;5.20;;;9.10;99.90;;;9.39;92.61;102135.53;5113202;28;20067;-65
2022/03/17 04:15:34;;;;;;;23.92;5.60;;;9.20;99.90;;;9.20;92.20;102099.06;5113410;28;20044;-65
2022/03/17 04:18:02;;;;;;;26.42;6.00;;;9.20;99.90;;;9.36;92.07;102148.69;5113133;28;20047;-66
2022/03/17 04:20:32;;;;;;;23.05;6.05;;;9.20;99.90;;;9.36;91.94;102146.06;5113107;28;20044;-65
2022/03/17 04:23:01;;;;;;;26.00;5.95;;;9.20;99.90;;;9.34;92.74;102166.25;5113131;28;20044;-65
2022/03/17 04:25:29;;;;;;;28.60;6.75;;;9.20;99.90;;;9.34;92.64;102166.25;5113246;28;20044;-65
2022/03/17 04:27:58;;;;;;;17.33;5.40;;;9.20;99.90;;;9.24;92.37;102172.19;5113047;28;20047;-66
2022/03/17 04:30:27;;;;;;;19.83;5.43;;;9.10;99.90;;;9.21;92.71;102174.78;5114922;28;20039;-65
2022/03/17 04:32:56;;;;;;;21.15;6.40;;;9.10;99.90;;;9.07;93.31;102182.38;5116875;28;20058;-65
2022/03/17 04:35:25;;;;;;;15.88;5.75;;;8.90;99.90;;;9.10;93.89;102182.44;5116801;28;20130;-64
2022/03/17 04:37:54;;;;;;;18.10;5.85;;;9.00;99.90;;;9.07;93.85;102178.84;5117314;28;20047;-65
2022/03/17 04:40:23;;;;;;;24.83;5.85;;;8.90;99.90;;;9.14;93.34;102220.34;5116973;28;20043;-65
2022/03/17 04:42:51;;;;;;;20.00;5.70;;;8.90;99.90;;;9.23;92.82;102211.75;5116712;28;20074;-65
2022/03/17 04:45:20;;;;;;;22.70;5.70;;;9.00;99.90;;;9.35;92.18;102225.25;5098585;28;20404;-65
2022/03/17 04:47:48;;;;;;;19.67;6.13;;;9.10;99.90;;;9.23;91.21;102212.66;5098475;28;20044;-65
2022/03/17 04:50:17;;;;;;;19.23;5.90;;;9.20;99.90;;;9.12;91.42;102229.09;5116396;28;20032;-65
2022/03/17 04:55:32;;;;;;;24.08;6.05;;;8.90;99.90;;;9.07;92.70;102255.38;5116530;28;20109;-65
2022/03/17 04:58:01;;;;;;;19.08;6.30;;;8.90;99.90;;;9.25;92.73;102266.38;5116369;28;20036;-65
2022/03/17 05:00:29;;;;;;;23.63;5.80;;;9.00;99.90;;;9.11;92.01;102262.53;5116257;28;20093;-65
2022/03/17 05:02:58;;;;;;;18.77;5.97;;;8.90;99.90;;;9.15;91.32;102272.31;5116278;28;20123;-65
2022/03/17 05:05:29;;;;;;;28.35;6.38;;;9.00;99.90;;;9.19;91.38;102286.47;5116075;28;20414;-65
2022/03/17 05:07:57;;;;;;;17.85;5.90;;;9.00;99.90;;;9.08;91.21;102283.53;5116606;28;20043;-65
2022/03/17 05:10:28;;;;;;;20.95;5.38;;;8.90;99.90;;;9.00;91.52;102295.69;5116010;28;20039;-64
2022/03/17 05:13:05;;;;;;;25.45;6.13;;;8.80;99.90;;;9.07;91.16;102300.25;5116428;28;20423;-65
2022/03/17 05:15:33;;;;;;;;;;;8.90;99.90;;;9.02;90.55;102301.88;5116810;28;20043;-66
2022/03/17 05:18:02;;;;;;;20.67;5.43;;;8.80;99.90;;;9.17;89.73;102310.19;5116031;28;20381;-66
2022/03/17 05:20:31;;;;;;;22.02;5.40;;;8.90;99.90;;;8.98;89.57;102307.97;5115943;28;20050;-67
2022/03/17 05:22:59;;;;;;;15.38;4.70;;;8.90;99.90;;;9.05;89.38;102320.44;5115931;28;20046;-67
2022/03/17 05:25:28;;;;;;;33.00;5.53;;;8.90;99.90;;;9.02;89.77;102336.19;5115839;28;20557;-65
2022/03/17 05:27:56;;;;;;;18.70;5.20;;;8.90;99.90;;;8.98;89.90;102308.81;5115721;28;20126;-65
2022/03/17 05:30:26;;;;;;;27.25;6.45;;;8.90;99.90;;;9.23;89.40;102352.59;5115652;28;20038;-65
2022/03/17 05:32:55;;;;;;;18.05;5.53;;;9.00;99.90;;;9.06;90.13;102328.38;5115708;28;20401;-65
2022/03/17 05:35:24;;;;;;;24.23;4.80;;;8.90;99.90;;;8.97;90.95;102337.81;5115991;28;20138;-65
2022/03/17 05:37:53;;;;;;;27.45;5.75;;;8.80;99.90;;;9.05;91.19;102378.50;5115610;28;20221;-65
2022/03/17 05:40:23;;;;;;;21.95;6.13;;;8.80;99.90;;;8.95;90.12;102360.63;5115575;28;20032;-65
2022/03/17 05:42:53;;;;;;;20.42;5.88;;;8.80;99.90;;;8.89;89.80;102361.38;5114616;28;20397;-65
2022/03/17 05:45:25;;;;;;;22.10;5.15;;;8.80;99.90;;;8.97;89.90;102374.75;5115717;28;20044;-64
2022/03/17 05:47:58;;;;;;;26.33;6.50;;;8.80;99.90;;;9.00;89.29;102380.13;5115752;28;20048;-64
2022/03/17 05:50:29;;;;;;;21.00;5.63;;;8.80;99.90;;;9.07;88.78;102379.44;5115657;28;20050;-65
2022/03/17 05:52:57;;;;;;;22.98;5.38;;;8.80;99.90;;;9.05;88.68;102379.41;5115368;28;20035;-64
2022/03/17 05:55:27;;;;;;;25.00;6.20;;;8.90;99.90;;;9.14;88.22;102399.84;5115523;28;20039;-65
2022/03/17 05:57:57;;;;;;;18.83;5.70;;;8.90;99.90;;;9.06;88.00;102407.56;5115783;28;20092;-65
2022/03/17 06:00:28;;;;;;;23.83;6.90;;;8.90;99.90;;;8.93;87.90;102391.38;5115378;28;20058;-65
2022/03/17 06:02:58;;;;;;;;;;;8.90;99.90;;;9.05;87.83;102412.81;5115514;28;20455;-65
2022/03/17 06:05:28;;;;;;;20.55;5.57;;;8.90;99.90;;;9.03;87.93;102404.88;5115293;28;19926;-65
2022/03/17 06:08:00;;;;;;;18.67;5.38;;;8.90;99.90;;;9.12;88.00;102425.31;5115570;28;20059;-65
2022/03/17 06:10:32;;;;;;;22.00;6.07;;;8.90;99.90;;;9.09;87.93;102428.78;5114957;28;20481;-65
2022/03/17 06:13:02;;;;;;;24.35;5.90;;;8.90;99.90;;;9.20;87.94;102439.59;5115005;28;20043;-64
2022/03/17 06:15:33;;;;;;;21.55;5.68;;;9.00;99.90;;;9.21;88.00;102441.41;5115359;28;20044;-68
2022/03/17 06:18:06;;;;;;;28.58;6.65;;;9.00;99.90;;;9.33;87.76;102454.91;5115125;28;20114;-67
2022/03/17 06:20:37;;;;;;;22.48;5.43;;;9.10;99.90;;;9.32;87.99;102458.41;5115016;28;20071;-65
2022/03/17 06:23:08;;;;;;;18.75;5.35;;;9.10;99.90;;;9.14;88.63;102460.56;5114631;28;20036;-67
2022/03/17 06:25:38;;;;;;;27.73;6.43;;;9.00;99.90;;;9.43;87.90;102478.06;5114509;28;20039;-67
2022/03/17 06:28:08;;;;;;;25.05;6.68;;;9.20;99.90;;;9.03;87.51;102439.16;5115125;28;20047;-67
2022/03/17 06:30:37;;;;;;;28.60;6.38;;;9.10;99.90;;;9.23;88.46;102479.31;5114392;28;20036;-66
2022/03/17 06:33:09;;;;;;;31.17;6.23;;;9.00;99.90;;;9.06;88.94;102480.56;5114468;28;20048;-67
2022/03/17 06:35:37;;;;;;;18.27;5.57;;;9.00;99.90;;;9.12;88.75;102475.47;5114725;28;20319;-66
2022/03/17 06:38:08;;;;;;;27.17;6.15;;;9.00;99.90;;;9.14;88.93;102489.59;5114649;28;20043;-66
2022/03/17 06:40:37;;;;;;;22.20;6.07;;;9.00;99.90;;;9.09;88.77;102492.13;5114640;28;20043;-65
2022/03/17 06:43:06;;;;;;;20.60;5.60;;;8.90;99.90;;;9.19;88.78;102502.94;5114550;28;20062;-65
2022/03/17 06:45:35;;;;;;;22.40;6.28;;;9.00;99.90;;;9.01;88.64;102483.09;5114052;28;20066;-66
2022/03/17 06:48:04;;;;;;;22.75;5.47;;;9.10;99.90;;;9.34;87.98;102521.81;5114280;28;20070;-64
2022/03/17 06:50:35;;;;;;;22.95;5.80;;;9.10;99.90;;;9.38;87.57;102523.69;5113900;28;20482;-66
2022/03/17 06:53:04;;;;;;;26.58;6.03;;;9.20;99.90;;;9.30;86.63;102526.13;5095944;28;20051;-66
2022/03/17 06:55:33;;;;;;;26.55;5.97;;;9.20;99.90;;;9.35;86.89;102542.97;5114070;28;20090;-65
2022/03/17 06:58:02;;;;;;;22.02;5.82;;;9.10;99.90;;;9.36;86.27;102538.59;5095969;28;20105;-66
2022/03/17 07:00:30;;;;;;;23.23;5.60;;;9.10;99.90;;;9.41;85.21;102552.81;5113988;28;20039;-66
2022/03/17 07:02:59;;;;;;;18.05;5.65;;;9.20;99.90;;;9.33;84.41;102549.97;5113890;28;20039;-65
2022/03/17 07:05:28;;;;;;;23.65;5.35;;;9.20;99.90;;;9.44;83.22;102558.19;5113926;28;20044;-65
2022/03/17 07:07:58;;;;;;;20.73;5.47;;;9.20;99.90;;;9.41;82.41;102566.94;5114290;28;20096;-65
2022/03/17 07:10:27;;;;;;;21.88;6.30;;;9.20;99.90;;;9.49;81.88;102573.31;5113723;28;20039;-65
2022/03/17 07:12:56;;;;;;;16.03;5.20;;;9.30;99.90;;;9.44;80.97;102580.22;5113773;28;20048;-65
2022/03/17 07:15:24;;;;;;;24.10;4.95;;;9.30;99.90;;;9.34;81.50;102585.19;5113691;28;20047;-67
2022/03/17 07:17:53;;;;;;;27.73;5.88;;;9.20;99.90;;;9.44;81.15;102588.16;5113692;28;20043;-65
2022/03/17 07:20:23;;;;;;;16.33;5.10;;;9.20;99.90;;;9.42;81.34;102587.22;5113391;28;20481;-66
2022/03/17 07:22:53;;;;;;;22.17;5.55;;;9.20;99.90;;;9.42;81.78;102596.88;5095643;28;20047;-67
2022/03/17 07:25:24;;;;;;;19.63;6.00;;;9.20;99.90;;;9.34;81.64;102578.19;5114098;28;20119;-66
2022/03/17 07:27:52;;;;;;;20.15;5.07;;;9.20;99.90;;;9.37;82.22;102596.75;5112809;28;20111;-65
2022/03/17 07:30:22;;;;;;;24.30;5.75;;;9.20;99.90;;;9.31;82.30;102606.25;5113774;28;20130;-65
2022/03/17 07:32:54;;;;;;;21.17;5.82;;;9.10;99.90;;;9.34;82.94;102609.88;5113635;28;20061;-66
2022/03/17 07:35:25;;;;;;;17.73;5.72;;;9.10;99.90;;;9.23;82.84;102599.84;5113651;28;20067;-65
2022/03/17 07:37:55;;;;;;;18.98;6.00;;;9.20;99.90;;;9.41;83.08;102625.03;5113516;28;20480;-70
2022/03/17 07:40:26;;;;;;;25.83;6.40;;;9.20;99.90;;;9.35;82.70;102602.84;5113531;28;20058;-70
2022/03/17 07:42:54;;;;;;;14.88;5.47;;;9.30;99.90;;;9.63;82.03;102643.28;5113131;28;20073;-68
2022/03/17 07:45:26;;;;;;;22.30;6.07;;;9.40;99.90;;;9.78;81.47;102650.72;5113239;28;20044;-64
2022/03/17 07:47:55;;;;;;;17.77;5.40;;;9.50;99.90;;;9.71;80.88;102648.78;5113575;28;20048;-65
2022/03/17 07:50:24;;;;;;;26.17;5.78;;;9.50;99.90;;;9.51;80.27;102647.31;5113223;28;20374;-65
2022/03/17 07:52:52;;;;;;;19.83;5.53;;;9.40;99.90;;;9.64;80.04;102645.06;5113520;28;20441;-65
2022/03/17 07:55:21;;;;;;;22.30;5.25;;;9.50;99.90;;;9.48;79.72;102641.97;5113617;28;20067;-65
2022/03/17 07:57:50;;;;;;;17.30;4.95;;;9.30;99.90;;;9.49;79.78;102660.47;5113323;28;20123;-65
2022/03/17 08:00:19;;;;;;;19.85;5.53;;;9.30;99.90;;;9.62;79.54;102672.31;5113549;28;20035;-65
2022/03/17 08:02:47;;;;;;;16.85;5.53;;;9.40;99.90;;;9.93;79.49;102677.56;5113470;28;20088;-64
2022/03/17 08:05:16;;;;;;;14.68;5.30;;;9.60;99.90;;;10.08;78.43;102680.66;5115010;28;20065;-66
2022/03/17 08:07:44;;;;;;;17.73;6.05;;;9.80;99.90;;;10.21;78.28;102697.75;5117203;28;20043;-65
2022/03/17 08:10:15;;;;;;;17.75;6.30;;;9.90;99.90;;;9.95;77.73;102683.78;5117150;28;20043;-65
2022/03/17 08:12:47;;;;;;;18.92;5.43;;;9.90;99.90;;;10.18;77.45;102745.28;5117581;28;20122;-65
2022/03/17 08:15:17;;;;;;;18.20;5.63;;;9.90;99.90;;;9.84;76.31;102643.88;5117407;28;20051;-66
2022/03/17 08:17:46;;;;;;;23.58;8.20;;;10.00;99.90;;;10.22;75.76;102721.59;5117271;28;20059;-70
2022/03/17 08:20:15;;;;;;;12.00;4.93;;;10.00;99.90;;;10.60;76.48;102730.53;5116928;28;20054;-67
2022/03/17 08:22:44;;;;;;;15.18;5.35;;;10.30;99.90;;;10.55;74.83;102726.88;5099060;28;20118;-67
2022/03/17 08:25:12;;;;;;;15.95;5.20;;;10.40;99.90;;;10.58;75.41;102732.25;5116945;28;20039;-67
2022/03/17 08:27:42;;;;;;;17.65;5.47;;;10.40;99.90;;;10.45;75.23;102732.78;5116872;28;20052;-67
2022/03/17 08:30:11;;;;;;;16.65;5.68;;;10.20;99.90;;;10.22;75.07;102733.94;5098926;28;20055;-67
2022/03/17 08:32:41;;;;;;;14.10;4.95;;;10.10;99.90;;;10.19;75.43;102753.25;5116734;28;20036;-66
2022/03/17 08:35:11;;;;;;;15.27;5.75;;;10.00;99.90;;;10.17;75.37;102762.88;5117323;28;20122;-65
2022/03/17 08:37:40;;;;;;;17.25;5.35;;;10.00;99.90;;;10.19;75.04;102763.81;5116719;28;20102;-68
2022/03/17 08:40:10;;;;;;;19.63;6.03;;;10.00;99.90;;;10.24;75.48;102766.59;5116697;28;20051;-64
2022/03/17 08:42:38;;;;;;;13.30;6.07;;;10.00;99.90;;;10.13;75.22;102766.31;5116918;28;20048;-67
2022/03/17 08:50:40;;;;;;;15.52;5.38;;;10.10;99.90;;;10.25;75.74;102785.16;5116676;28;20443;-66
2022/03/17 08:53:09;;;;;;;17.80;6.15;;;10.10;99.90;;;10.40;75.45;102766.16;5116376;28;20519;-66
2022/03/17 08:55:39;;;;;;;14.05;5.60;;;10.30;99.90;;;10.87;75.19;102805.34;5116357;28;20036;-66
2022/03/17 08:58:08;;;;;;;13.05;5.10;;;10.60;99.90;;;11.03;73.45;102809.28;5116415;28;20044;-66
2022/03/17 09:00:37;;;;;;;16.95;5.15;;;10.80;99.90;;;11.21;71.88;102805.31;5116890;28;20097;-66
2022/03/17 09:03:07;;;;;;;10.50;5.20;;;11.00;99.90;;;11.17;71.29;102811.38;5116634;28;20074;-66
2022/03/17 09:05:37;;;;;;;11.88;5.00;;;11.00;99.90;;;11.39;70.84;102783.66;5116468;28;20059;-67
2022/03/17 09:08:07;;;;;;;11.15;5.60;;;11.30;99.90;;;12.04;70.71;102814.31;5116527;28;20139;-66
2022/03/17 09:10:38;;;;;;;16.73;5.20;;;11.70;99.90;;;11.84;70.08;102818.28;5116151;28;20404;-65
2022/03/17 09:13:07;;;;;;;15.75;5.88;;;11.70;99.90;;;11.48;70.64;102737.06;5116589;28;20047;-66
2022/03/17 09:15:38;;;;;;;18.77;6.10;;;11.80;99.90;;;11.95;71.53;102840.59;5115564;28;20476;-65
2022/03/17 09:18:10;;;;;;;14.82;6.10;;;11.80;99.90;;;11.71;71.38;102841.00;5115398;28;20047;-65
2022/03/17 09:20:41;;;;;;;44.42;10.55;;;11.60;99.90;;;11.65;71.02;102846.13;5116271;28;20062;-67
2022/03/17 09:23:09;;;;;;;;;;;11.50;99.90;;;11.58;71.71;102838.84;5116629;28;20362;-66
2022/03/17 09:25:38;;;;;;;17.33;5.80;;;11.40;99.90;;;11.55;71.67;102860.00;5116432;28;19963;-67
2022/03/17 09:28:06;;;;;;;14.82;6.20;;;11.30;99.90;;;11.57;71.23;102837.09;5115810;28;20039;-67
2022/03/17 09:30:36;;;;;;;12.63;6.03;;;11.40;99.90;;;11.67;70.65;102870.94;5115788;28;20118;-67
2022/03/17 09:33:05;;;;;;;14.20;5.90;;;11.50;99.90;;;11.82;70.18;102876.59;5115630;28;20039;-67
2022/03/17 09:35:35;;;;;;;13.15;5.80;;;11.60;99.90;;;11.62;71.24;102878.75;5115664;28;20039;-68
2022/03/17 09:38:05;;;;;;;17.65;6.63;;;11.50;99.90;;;11.91;71.81;102890.03;5115548;28;20039;-67
2022/03/17 09:40:36;;;;;;;15.40;6.30;;;11.70;99.90;;;11.51;70.24;102892.59;5115499;28;20413;-68
2022/03/17 09:43:21;;;;;;;13.43;6.25;;;11.40;99.90;;;11.36;71.40;102903.69;5115900;28;20059;-67
2022/03/17 09:45:54;;;;;;;16.33;6.93;;;11.20;99.90;;;11.48;72.14;102911.97;5115512;28;20075;-66
2022/03/17 09:48:25;;;;;;;16.13;7.05;;;11.20;99.90;;;11.53;71.13;102901.47;5115319;28;20040;-66
2022/03/17 09:50:59;;;;;;;18.08;6.70;;;11.30;99.90;;;11.68;70.90;102915.13;5115354;28;20069;-66
2022/03/17 09:53:31;;;;;;;12.65;6.25;;;11.50;99.90;;;11.76;70.22;102909.16;5115163;28;20481;-66
2022/03/17 09:55:59;;;;;;;;;;;11.60;99.90;;;11.97;70.70;102918.44;5115677;28;20488;-66
2022/03/17 09:58:28;;;;;;;12.30;6.38;;;11.80;99.90;;;11.62;70.33;102902.59;5115114;28;19927;-66
2022/03/17 10:00:59;;;;;;;20.90;7.57;;;11.70;99.90;;;11.83;69.64;102930.53;5115113;28;20059;-66
2022/03/17 10:03:32;;;;;;;16.05;6.07;;;11.60;99.90;;;11.85;69.22;102934.06;5115120;28;20400;-68
2022/03/17 10:06:07;;;;;;;13.90;6.40;;;11.60;99.90;;;11.73;69.23;102911.72;5115252;28;20051;-64
2022/03/17 10:08:37;;;;;;;13.30;6.10;;;11.70;99.90;;;11.94;68.37;102929.91;5115352;28;20071;-69
2022/03/17 10:11:06;;;;;;;14.70;6.72;;;11.80;99.90;;;11.84;69.79;102941.16;5096877;28;20044;-67
2022/03/17 10:13:45;;;;;;;16.25;7.03;;;11.70;99.90;;;11.93;70.06;102937.81;5115153;28;20036;-67
2022/03/17 10:16:18;;;;;;;17.17;6.78;;;11.80;99.90;;;12.31;68.82;102961.69;5114794;28;20040;-67
2022/03/17 10:18:47;;;;;;;12.80;6.50;;;12.00;99.90;;;12.24;67.81;102978.34;5115356;28;20051;-66
2022/03/17 10:21:24;;;;;;;12.48;6.43;;;12.00;99.90;;;12.27;67.09;102982.84;5114965;28;20134;-67
2022/03/17 10:23:55;;;;;;;16.52;7.03;;;12.10;99.90;;;12.29;67.66;102981.97;5114582;28;20039;-64
2022/03/17 10:26:41;;;;;;;13.43;6.20;;;12.10;99.90;;;11.77;68.69;102984.28;5114383;28;20046;-64
2022/03/17 10:29:16;;;;;;;30.55;10.95;;;11.70;99.90;;;12.02;69.33;102999.91;5096138;28;20386;-61
2022/03/17 10:31:58;;;;;;;14.10;6.32;;;11.80;99.90;;;12.19;69.74;102987.97;5114596;28;20090;-64
2022/03/17 10:34:29;;;;;;;17.27;6.55;;;11.90;99.90;;;12.38;69.79;102992.84;5114519;28;20043;-63
2022/03/17 10:37:12;;;;;;;20.80;6.47;;;12.10;99.90;;;12.24;68.32;103003.97;5114764;28;20051;-63
2022/03/17 10:39:45;;;;;;;16.27;6.53;;;12.00;99.90;;;12.19;68.75;103008.28;5114714;28;20090;-64